sensor_id;sensor_type;location;lat;lon;timestamp;pressure;altitude;pressure_sealevel;temperature;humidity
55070;BME280;40967;52.070;8.596;2023-12-04T00:02:24;100636.63;;;-0.77;100.00
55070;BME280;40967;52.070;8.596;2023-12-04T00:08:01;100586.88;;;-0.98;100.00
55070;BME280;40967;52.070;8.596;2023-12-04T00:10:42;100594.28;;;-0.93;100.00
55070;BME280;40967;52.070;8.596;2023-12-04T00:13:09;100613.84;;;-0.80;100.00
55070;BME280;40967;52.070;8.596;2023-12-04T00:19:06;100596.44;;;-0.82;100.00
55070;BME280;40967;52.070;8.596;2023-12-04T00:21:39;100598.94;;;-0.74;100.00
55070;BME280;40967;52.070;8.596;2023-12-04T00:24:08;100593.59;;;-0.74;100.00
55070;BME280;40967;52.070;8.596;2023-12-04T00:26:38;100538.09;;;-1.05;100.00
55070;BME280;40967;52.070;8.596;2023-12-04T00:29:09;100571.84;;;-0.78;100.00
55070;BME280;40967;52.070;8.596;2023-12-04T00:34:42;100546.78;;;-0.90;100.00
55070;BME280;40967;52.070;8.596;2023-12-04T00:37:22;100567.78;;;-0.74;100.00
55070;BME280;40967;52.070;8.596;2023-12-04T00:40:14;100575.63;;;-0.66;100.00
55070;BME280;40967;52.070;8.596;2023-12-04T00:42:56;100503.06;;;-1.02;100.00
55070;BME280;40967;52.070;8.596;2023-12-04T00:45:32;100566.19;;;-0.68;100.00
55070;BME280;40967;52.070;8.596;2023-12-04T00:48:05;100567.19;;;-0.69;100.00
55070;BME280;40967;52.070;8.596;2023-12-04T00:51:02;100536.97;;;-0.89;100.00
55070;BME280;40967;52.070;8.596;2023-12-04T00:53:33;100568.84;;;-0.75;100.00
55070;BME280;40967;52.070;8.596;2023-12-04T00:56:08;100531.00;;;-0.91;100.00
55070;BME280;40967;52.070;8.596;2023-12-04T00:58:44;100505.06;;;-1.10;100.00
55070;BME280;40967;52.070;8.596;2023-12-04T01:01:22;100500.19;;;-1.07;100.00
55070;BME280;40967;52.070;8.596;2023-12-04T01:03:57;100557.56;;;-0.70;100.00
55070;BME280;40967;52.070;8.596;2023-12-04T01:06:29;100548.94;;;-0.72;100.00
55070;BME280;40967;52.070;8.596;2023-12-04T01:09:09;100544.84;;;-0.75;100.00
55070;BME280;40967;52.070;8.596;2023-12-04T01:11:37;100531.44;;;-0.88;100.00
55070;BME280;40967;52.070;8.596;2023-12-04T01:14:04;100543.19;;;-0.76;100.00
55070;BME280;40967;52.070;8.596;2023-12-04T01:16:35;100492.19;;;-1.07;100.00
55070;BME280;40967;52.070;8.596;2023-12-04T01:19:02;100529.66;;;-0.74;100.00
55070;BME280;40967;52.070;8.596;2023-12-04T01:21:31;100519.38;;;-0.84;100.00
55070;BME280;40967;52.070;8.596;2023-12-04T01:23:59;100521.47;;;-0.73;100.00
55070;BME280;40967;52.070;8.596;2023-12-04T01:26:27;100498.41;;;-0.93;100.00
55070;BME280;40967;52.070;8.596;2023-12-04T01:28:55;100472.53;;;-1.06;100.00
55070;BME280;40967;52.070;8.596;2023-12-04T01:31:33;100527.25;;;-0.69;100.00
55070;BME280;40967;52.070;8.596;2023-12-04T01:34:05;100463.94;;;-1.08;100.00
55070;BME280;40967;52.070;8.596;2023-12-04T01:36:40;100470.69;;;-1.05;100.00
55070;BME280;40967;52.070;8.596;2023-12-04T01:39:21;100491.47;;;-0.94;100.00
55070;BME280;40967;52.070;8.596;2023-12-04T01:42:00;100480.84;;;-0.88;100.00
55070;BME280;40967;52.070;8.596;2023-12-04T01:44:30;100523.81;;;-0.63;100.00
55070;BME280;40967;52.070;8.596;2023-12-04T01:46:57;100506.78;;;-0.62;100.00
55070;BME280;40967;52.070;8.596;2023-12-04T01:49:39;100481.09;;;-0.76;100.00
55070;BME280;40967;52.070;8.596;2023-12-04T01:52:20;100499.41;;;-0.67;100.00
55070;BME280;40967;52.070;8.596;2023-12-04T01:55:29;100482.97;;;-0.70;100.00
55070;BME280;40967;52.070;8.596;2023-12-04T01:57:48;100496.78;;;-0.54;100.00
55070;BME280;40967;52.070;8.596;2023-12-04T02:00:29;100505.41;;;-0.52;100.00
55070;BME280;40967;52.070;8.596;2023-12-04T02:02:59;100491.28;;;-0.52;100.00
55070;BME280;40967;52.070;8.596;2023-12-04T02:05:32;100428.38;;;-0.94;100.00
55070;BME280;40967;52.070;8.596;2023-12-04T02:08:16;100480.19;;;-0.56;100.00
55070;BME280;40967;52.070;8.596;2023-12-04T02:10:52;100464.13;;;-0.69;100.00
55070;BME280;40967;52.070;8.596;2023-12-04T02:13:19;100447.28;;;-0.76;100.00
55070;BME280;40967;52.070;8.596;2023-12-04T02:15:53;100467.22;;;-0.65;100.00
55070;BME280;40967;52.070;8.596;2023-12-04T02:18:39;100484.69;;;-0.56;100.00
55070;BME280;40967;52.070;8.596;2023-12-04T02:21:15;100465.38;;;-0.65;100.00
55070;BME280;40967;52.070;8.596;2023-12-04T02:27:46;100454.94;;;-0.66;100.00
55070;BME280;40967;52.070;8.596;2023-12-04T02:30:24;100413.00;;;-0.92;100.00
55070;BME280;40967;52.070;8.596;2023-12-04T02:33:28;100435.88;;;-0.70;100.00
55070;BME280;40967;52.070;8.596;2023-12-04T02:36:08;100448.44;;;-0.51;100.00
55070;BME280;40967;52.070;8.596;2023-12-04T02:38:40;100414.16;;;-0.67;100.00
55070;BME280;40967;52.070;8.596;2023-12-04T02:41:11;100428.94;;;-0.58;100.00
55070;BME280;40967;52.070;8.596;2023-12-04T02:43:48;100426.47;;;-0.59;100.00
55070;BME280;40967;52.070;8.596;2023-12-04T02:46:16;100430.41;;;-0.49;100.00
55070;BME280;40967;52.070;8.596;2023-12-04T02:48:49;100427.34;;;-0.39;100.00
55070;BME280;40967;52.070;8.596;2023-12-04T02:51:16;100415.84;;;-0.40;100.00
55070;BME280;40967;52.070;8.596;2023-12-04T02:53:52;100379.72;;;-0.62;100.00
55070;BME280;40967;52.070;8.596;2023-12-04T02:56:27;100401.69;;;-0.47;100.00
55070;BME280;40967;52.070;8.596;2023-12-04T02:59:04;100345.66;;;-0.73;100.00
55070;BME280;40967;52.070;8.596;2023-12-04T03:01:33;100374.81;;;-0.52;100.00
55070;BME280;40967;52.070;8.596;2023-12-04T03:04:07;100406.03;;;-0.33;100.00
55070;BME280;40967;52.070;8.596;2023-12-04T03:06:38;100399.69;;;-0.32;100.00
55070;BME280;40967;52.070;8.596;2023-12-04T03:09:33;100326.63;;;-0.70;100.00
55070;BME280;40967;52.070;8.596;2023-12-04T03:12:06;100350.47;;;-0.49;100.00
55070;BME280;40967;52.070;8.596;2023-12-04T03:15:04;100381.84;;;-0.31;100.00
55070;BME280;40967;52.070;8.596;2023-12-04T03:17:37;100385.97;;;-0.29;100.00
55070;BME280;40967;52.070;8.596;2023-12-04T03:20:06;100347.81;;;-0.42;100.00
55070;BME280;40967;52.070;8.596;2023-12-04T03:22:36;100377.34;;;-0.24;100.00
55070;BME280;40967;52.070;8.596;2023-12-04T03:25:08;100357.63;;;-0.36;100.00
55070;BME280;40967;52.070;8.596;2023-12-04T03:27:53;100356.84;;;-0.30;100.00
55070;BME280;40967;52.070;8.596;2023-12-04T03:30:31;100360.75;;;-0.26;100.00
55070;BME280;40967;52.070;8.596;2023-12-04T03:33:10;100370.78;;;-0.22;100.00
55070;BME280;40967;52.070;8.596;2023-12-04T03:35:40;100361.75;;;-0.21;100.00
55070;BME280;40967;52.070;8.596;2023-12-04T03:38:12;100358.09;;;-0.20;100.00
55070;BME280;40967;52.070;8.596;2023-12-04T03:40:42;100358.72;;;-0.18;100.00
55070;BME280;40967;52.070;8.596;2023-12-04T03:43:17;100334.47;;;-0.29;100.00
55070;BME280;40967;52.070;8.596;2023-12-04T03:46:07;100304.75;;;-0.46;100.00
55070;BME280;40967;52.070;8.596;2023-12-04T03:48:36;100348.63;;;-0.16;100.00
55070;BME280;40967;52.070;8.596;2023-12-04T03:51:05;100342.28;;;-0.15;100.00
55070;BME280;40967;52.070;8.596;2023-12-04T03:53:44;100340.25;;;-0.13;100.00
55070;BME280;40967;52.070;8.596;2023-12-04T03:56:11;100342.72;;;-0.11;100.00
55070;BME280;40967;52.070;8.596;2023-12-04T03:58:44;100324.47;;;-0.14;100.00
55070;BME280;40967;52.070;8.596;2023-12-04T04:01:43;100324.03;;;-0.11;100.00
55070;BME280;40967;52.070;8.596;2023-12-04T04:04:16;100327.72;;;-0.12;100.00
55070;BME280;40967;52.070;8.596;2023-12-04T04:06:47;100325.25;;;-0.14;100.00
55070;BME280;40967;52.070;8.596;2023-12-04T04:09:30;100322.81;;;-0.15;100.00
55070;BME280;40967;52.070;8.596;2023-12-04T04:12:04;100299.41;;;-0.33;100.00
55070;BME280;40967;52.070;8.596;2023-12-04T04:14:32;100294.09;;;-0.33;100.00
55070;BME280;40967;52.070;8.596;2023-12-04T04:17:10;100303.72;;;-0.25;100.00
55070;BME280;40967;52.070;8.596;2023-12-04T04:19:46;100321.56;;;-0.19;100.00
55070;BME280;40967;52.070;8.596;2023-12-04T04:22:27;100309.06;;;-0.19;100.00
55070;BME280;40967;52.070;8.596;2023-12-04T04:24:56;100313.56;;;-0.19;100.00
55070;BME280;40967;52.070;8.596;2023-12-04T04:27:27;100284.25;;;-0.32;100.00
55070;BME280;40967;52.070;8.596;2023-12-04T04:29:59;100245.31;;;-0.53;100.00
55070;BME280;40967;52.070;8.596;2023-12-04T04:32:30;100301.88;;;-0.18;100.00
55070;BME280;40967;52.070;8.596;2023-12-04T04:37:52;100298.41;;;-0.19;100.00
55070;BME280;40967;52.070;8.596;2023-12-04T04:40:33;100302.72;;;-0.18;100.00
55070;BME280;40967;52.070;8.596;2023-12-04T04:43:14;100257.19;;;-0.49;100.00
55070;BME280;40967;52.070;8.596;2023-12-04T04:45:43;100287.94;;;-0.20;100.00
55070;BME280;40967;52.070;8.596;2023-12-04T04:48:44;100297.78;;;-0.14;100.00
55070;BME280;40967;52.070;8.596;2023-12-04T04:51:11;100295.94;;;-0.14;100.00
55070;BME280;40967;52.070;8.596;2023-12-04T04:53:45;100290.59;;;-0.14;100.00
55070;BME280;40967;52.070;8.596;2023-12-04T04:56:25;100275.25;;;-0.25;100.00
55070;BME280;40967;52.070;8.596;2023-12-04T04:59:03;100293.06;;;-0.12;100.00
55070;BME280;40967;52.070;8.596;2023-12-04T05:01:38;100288.56;;;-0.12;100.00
55070;BME280;40967;52.070;8.596;2023-12-04T05:04:41;100262.13;;;-0.26;100.00
55070;BME280;40967;52.070;8.596;2023-12-04T05:07:39;100259.25;;;-0.25;100.00
55070;BME280;40967;52.070;8.596;2023-12-04T05:10:26;100248.78;;;-0.33;100.00
55070;BME280;40967;52.070;8.596;2023-12-04T05:13:00;100259.25;;;-0.25;100.00
55070;BME280;40967;52.070;8.596;2023-12-04T05:16:14;100283.84;;;-0.10;100.00
55070;BME280;40967;52.070;8.596;2023-12-04T05:18:49;100238.94;;;-0.39;100.00
55070;BME280;40967;52.070;8.596;2023-12-04T05:27:58;100250.63;;;-0.27;100.00
55070;BME280;40967;52.070;8.596;2023-12-04T05:30:43;100267.22;;;-0.18;100.00
55070;BME280;40967;52.070;8.596;2023-12-04T05:33:18;100254.53;;;-0.23;100.00
55070;BME280;40967;52.070;8.596;2023-12-04T05:36:18;100270.91;;;-0.13;100.00
55070;BME280;40967;52.070;8.596;2023-12-04T05:39:03;100228.47;;;-0.34;100.00
55070;BME280;40967;52.070;8.596;2023-12-04T05:41:41;100260.03;;;-0.11;100.00
55070;BME280;40967;52.070;8.596;2023-12-04T05:44:17;100240.38;;;-0.23;100.00
55070;BME280;40967;52.070;8.596;2023-12-04T05:46:48;100251.22;;;-0.12;100.00
55070;BME280;40967;52.070;8.596;2023-12-04T05:49:20;100200.19;;;-0.41;100.00
55070;BME280;40967;52.070;8.596;2023-12-04T05:51:50;100241.00;;;-0.21;100.00
55070;BME280;40967;52.070;8.596;2023-12-04T05:54:20;100247.53;;;-0.11;100.00
55070;BME280;40967;52.070;8.596;2023-12-04T05:56:52;100250.22;;;-0.11;100.00
55070;BME280;40967;52.070;8.596;2023-12-04T05:59:27;100240.75;;;-0.13;100.00
55070;BME280;40967;52.070;8.596;2023-12-04T06:01:54;100233.19;;;-0.16;100.00
55070;BME280;40967;52.070;8.596;2023-12-04T06:04:22;100252.66;;;-0.09;100.00
55070;BME280;40967;52.070;8.596;2023-12-04T06:06:51;100227.25;;;-0.25;100.00
55070;BME280;40967;52.070;8.596;2023-12-04T06:09:24;100243.03;;;-0.17;100.00
55070;BME280;40967;52.070;8.596;2023-12-04T06:12:20;100237.06;;;-0.19;100.00
55070;BME280;40967;52.070;8.596;2023-12-04T06:15:04;100205.94;;;-0.38;100.00
55070;BME280;40967;52.070;8.596;2023-12-04T06:17:31;100233.41;;;-0.18;100.00
55070;BME280;40967;52.070;8.596;2023-12-04T06:20:07;100252.88;;;-0.04;100.00
55070;BME280;40967;52.070;8.596;2023-12-04T06:22:42;100249.38;;;-0.05;100.00
55070;BME280;40967;52.070;8.596;2023-12-04T06:25:14;100248.34;;;-0.04;100.00
55070;BME280;40967;52.070;8.596;2023-12-04T06:27:47;100195.66;;;-0.34;100.00
55070;BME280;40967;52.070;8.596;2023-12-04T06:30:15;100181.72;;;-0.36;100.00
55070;BME280;40967;52.070;8.596;2023-12-04T06:32:52;100215.16;;;-0.14;100.00
55070;BME280;40967;52.070;8.596;2023-12-04T06:35:27;100238.09;;;0.00;100.00
55070;BME280;40967;52.070;8.596;2023-12-04T06:38:10;100232.94;;;-0.02;100.00
55070;BME280;40967;52.070;8.596;2023-12-04T06:40:42;100236.66;;;-0.03;100.00
55070;BME280;40967;52.070;8.596;2023-12-04T06:43:22;100239.94;;;-0.01;100.00
55070;BME280;40967;52.070;8.596;2023-12-04T06:45:53;100224.56;;;-0.12;100.00
55070;BME280;40967;52.070;8.596;2023-12-04T06:48:25;100249.56;;;0.00;100.00
55070;BME280;40967;52.070;8.596;2023-12-04T06:51:02;100207.16;;;-0.27;100.00
55070;BME280;40967;52.070;8.596;2023-12-04T06:53:37;100226.41;;;-0.06;100.00
55070;BME280;40967;52.070;8.596;2023-12-04T06:56:08;100236.66;;;-0.09;100.00
55070;BME280;40967;52.070;8.596;2023-12-04T06:58:46;100250.81;;;-0.02;100.00
55070;BME280;40967;52.070;8.596;2023-12-04T07:01:19;100251.59;;;-0.02;100.00
55070;BME280;40967;52.070;8.596;2023-12-04T07:04:11;100254.28;;;-0.02;100.00
55070;BME280;40967;52.070;8.596;2023-12-04T07:06:39;100185.66;;;-0.39;100.00
55070;BME280;40967;52.070;8.596;2023-12-04T07:09:09;100221.88;;;-0.12;100.00
55070;BME280;40967;52.070;8.596;2023-12-04T07:11:44;100252.00;;;0.02;100.00
55070;BME280;40967;52.070;8.596;2023-12-04T07:14:34;100215.75;;;-0.19;100.00
55070;BME280;40967;52.070;8.596;2023-12-04T07:17:03;100193.19;;;-0.29;100.00
55070;BME280;40967;52.070;8.596;2023-12-04T07:19:30;100223.75;;;-0.06;100.00
55070;BME280;40967;52.070;8.596;2023-12-04T07:22:17;100199.31;;;-0.16;100.00
55070;BME280;40967;52.070;8.596;2023-12-04T07:24:44;100213.25;;;-0.01;100.00
55070;BME280;40967;52.070;8.596;2023-12-04T07:27:17;100188.25;;;-0.19;100.00
55070;BME280;40967;52.070;8.596;2023-12-04T07:29:58;100189.50;;;-0.22;100.00
55070;BME280;40967;52.070;8.596;2023-12-04T07:32:35;100187.47;;;-0.26;100.00
55070;BME280;40967;52.070;8.596;2023-12-04T07:35:06;100224.53;;;-0.05;100.00
55070;BME280;40967;52.070;8.596;2023-12-04T07:37:45;100219.59;;;-0.02;100.00
55070;BME280;40967;52.070;8.596;2023-12-04T07:40:24;100157.53;;;-0.35;100.00
55070;BME280;40967;52.070;8.596;2023-12-04T07:43:02;100185.41;;;-0.24;100.00
55070;BME280;40967;52.070;8.596;2023-12-04T07:45:52;100174.34;;;-0.21;100.00
55070;BME280;40967;52.070;8.596;2023-12-04T07:48:43;100219.59;;;-0.02;100.00
55070;BME280;40967;52.070;8.596;2023-12-04T07:51:14;100211.59;;;-0.02;100.00
55070;BME280;40967;52.070;8.596;2023-12-04T07:53:44;100215.31;;;-0.03;100.00
55070;BME280;40967;52.070;8.596;2023-12-04T07:56:35;100179.06;;;-0.23;100.00
55070;BME280;40967;52.070;8.596;2023-12-04T07:59:16;100190.72;;;-0.11;100.00
55070;BME280;40967;52.070;8.596;2023-12-04T08:01:55;100198.69;;;-0.05;100.00
55070;BME280;40967;52.070;8.596;2023-12-04T08:05:51;100196.03;;;-0.05;100.00
55070;BME280;40967;52.070;8.596;2023-12-04T08:07:42;100137.06;;;-0.41;100.00
55070;BME280;40967;52.070;8.596;2023-12-04T08:10:16;100128.22;;;-0.41;100.00
55070;BME280;40967;52.070;8.596;2023-12-04T08:12:54;100156.91;;;-0.24;100.00
55070;BME280;40967;52.070;8.596;2023-12-04T08:15:33;100128.22;;;-0.35;100.00
55070;BME280;40967;52.070;8.596;2023-12-04T08:21:07;100165.72;;;-0.17;100.00
55070;BME280;40967;52.070;8.596;2023-12-04T08:23:53;100118.63;;;-0.42;100.00
55070;BME280;40967;52.070;8.596;2023-12-04T08:26:33;100184.75;;;0.00;100.00
55070;BME280;40967;52.070;8.596;2023-12-04T08:29:14;100158.31;;;-0.15;100.00
55070;BME280;40967;52.070;8.596;2023-12-04T08:31:52;100150.09;;;-0.13;100.00
55070;BME280;40967;52.070;8.596;2023-12-04T08:34:27;100171.22;;;0.02;100.00
55070;BME280;40967;52.070;8.596;2023-12-04T08:40:23;100144.56;;;-0.12;100.00
55070;BME280;40967;52.070;8.596;2023-12-04T08:42:50;100164.66;;;-0.03;100.00
55070;BME280;40967;52.070;8.596;2023-12-04T08:45:34;100154.81;;;-0.02;100.00
55070;BME280;40967;52.070;8.596;2023-12-04T08:48:33;100160.34;;;-0.04;100.00
55070;BME280;40967;52.070;8.596;2023-12-04T08:55:13;100093.59;;;-0.41;100.00
55070;BME280;40967;52.070;8.596;2023-12-04T08:57:57;100108.72;;;-0.29;99.85
55070;BME280;40967;52.070;8.596;2023-12-04T09:11:58;100084.56;;;-0.34;99.30
55070;BME280;40967;52.070;8.596;2023-12-04T09:17:50;100123.03;;;-0.10;99.94
55070;BME280;40967;52.070;8.596;2023-12-04T09:20:40;100112.34;;;-0.10;99.81
55070;BME280;40967;52.070;8.596;2023-12-04T09:23:34;100107.41;;;-0.07;99.63
55070;BME280;40967;52.070;8.596;2023-12-04T09:26:24;100129.34;;;0.09;99.59
55070;BME280;40967;52.070;8.596;2023-12-04T09:29:05;100089.44;;;-0.18;98.87
55070;BME280;40967;52.070;8.596;2023-12-04T09:32:00;100061.41;;;-0.33;97.84
55070;BME280;40967;52.070;8.596;2023-12-04T09:34:37;100056.03;;;-0.27;97.31
55070;BME280;40967;52.070;8.596;2023-12-04T09:37:06;100114.13;;;0.16;97.25
55070;BME280;40967;52.070;8.596;2023-12-04T09:39:36;100107.13;;;0.15;97.51
55070;BME280;40967;52.070;8.596;2023-12-04T09:42:03;100100.41;;;0.12;97.82
55070;BME280;40967;52.070;8.596;2023-12-04T09:44:38;100051.47;;;-0.13;97.40
55070;BME280;40967;52.070;8.596;2023-12-04T09:47:35;100119.59;;;0.27;96.60
55070;BME280;40967;52.070;8.596;2023-12-04T09:50:09;100057.75;;;-0.01;96.17
55070;BME280;40967;52.070;8.596;2023-12-04T09:52:38;100110.94;;;0.32;96.24
55070;BME280;40967;52.070;8.596;2023-12-04T09:55:06;100094.16;;;0.25;96.69
55070;BME280;40967;52.070;8.596;2023-12-04T09:57:39;100100.06;;;0.33;96.37
55070;BME280;40967;52.070;8.596;2023-12-04T10:00:35;100079.38;;;0.29;96.40
55070;BME280;40967;52.070;8.596;2023-12-04T10:03:09;100098.56;;;0.44;96.20
55070;BME280;40967;52.070;8.596;2023-12-04T10:05:44;100068.47;;;0.30;96.28
55070;BME280;40967;52.070;8.596;2023-12-04T10:08:16;100072.91;;;0.43;95.83
55070;BME280;40967;52.070;8.596;2023-12-04T10:10:44;100081.09;;;0.48;95.84
55070;BME280;40967;52.070;8.596;2023-12-04T10:13:12;100078.22;;;0.49;96.49
55070;BME280;40967;52.070;8.596;2023-12-04T10:16:18;100067.53;;;0.49;95.93
55070;BME280;40967;52.070;8.596;2023-12-04T10:18:35;100065.91;;;0.48;94.69
55070;BME280;40967;52.070;8.596;2023-12-04T10:21:09;100055.66;;;0.45;94.48
55070;BME280;40967;52.070;8.596;2023-12-04T10:23:50;100052.94;;;0.52;94.26
55070;BME280;40967;52.070;8.596;2023-12-04T10:26:20;100043.91;;;0.53;93.70
55070;BME280;40967;52.070;8.596;2023-12-04T10:29:02;99979.44;;;0.25;94.23
55070;BME280;40967;52.070;8.596;2023-12-04T10:31:34;100017.88;;;0.48;94.39
55070;BME280;40967;52.070;8.596;2023-12-04T10:34:18;100022.88;;;0.63;93.93
55070;BME280;40967;52.070;8.596;2023-12-04T10:36:59;100022.47;;;0.66;94.36
55070;BME280;40967;52.070;8.596;2023-12-04T10:39:50;100002.34;;;0.63;94.04
55070;BME280;40967;52.070;8.596;2023-12-04T10:42:30;100014.69;;;0.64;94.00
55070;BME280;40967;52.070;8.596;2023-12-04T10:45:10;99968.47;;;0.39;94.91
55070;BME280;40967;52.070;8.596;2023-12-04T10:47:54;100015.00;;;0.74;94.75
55070;BME280;40967;52.070;8.596;2023-12-04T10:50:28;100013.31;;;0.80;94.75
55070;BME280;40967;52.070;8.596;2023-12-04T10:53:22;99987.53;;;0.67;94.45
55070;BME280;40967;52.070;8.596;2023-12-04T10:55:56;99970.31;;;0.63;94.10
55070;BME280;40967;52.070;8.596;2023-12-04T10:58:26;99992.53;;;0.82;93.21
55070;BME280;40967;52.070;8.596;2023-12-04T11:00:55;99974.13;;;0.74;92.20
55070;BME280;40967;52.070;8.596;2023-12-04T11:03:34;99972.06;;;0.76;91.01
55070;BME280;40967;52.070;8.596;2023-12-04T11:06:05;99933.63;;;0.59;89.84
55070;BME280;40967;52.070;8.596;2023-12-04T11:08:39;99963.00;;;0.77;89.09
55070;BME280;40967;52.070;8.596;2023-12-04T11:11:18;99980.16;;;0.87;87.87
55070;BME280;40967;52.070;8.596;2023-12-04T11:13:56;99935.84;;;0.62;86.85
55070;BME280;40967;52.070;8.596;2023-12-04T11:16:57;99970.59;;;0.80;86.06
55070;BME280;40967;52.070;8.596;2023-12-04T11:19:54;99971.50;;;0.92;86.19
55070;BME280;40967;52.070;8.596;2023-12-04T11:22:25;99978.84;;;0.96;87.08
55070;BME280;40967;52.070;8.596;2023-12-04T11:25:26;99947.09;;;0.88;86.76
55070;BME280;40967;52.070;8.596;2023-12-04T11:28:01;99965.09;;;0.93;86.32
55070;BME280;40967;52.070;8.596;2023-12-04T11:30:52;99938.09;;;0.83;85.70
55070;BME280;40967;52.070;8.596;2023-12-04T11:33:37;99895.34;;;0.65;87.38
55070;BME280;40967;52.070;8.596;2023-12-04T11:36:19;99947.84;;;0.95;88.19
55070;BME280;40967;52.070;8.596;2023-12-04T11:38:53;99959.31;;;0.96;88.62
55070;BME280;40967;52.070;8.596;2023-12-04T11:41:32;99953.38;;;0.94;88.54
55070;BME280;40967;52.070;8.596;2023-12-04T11:44:25;99927.31;;;0.71;87.45
55070;BME280;40967;52.070;8.596;2023-12-04T11:47:11;99914.78;;;0.72;87.94
55070;BME280;40967;52.070;8.596;2023-12-04T11:49:52;99874.34;;;0.50;87.94
55070;BME280;40967;52.070;8.596;2023-12-04T11:52:50;99874.94;;;0.52;87.92
55070;BME280;40967;52.070;8.596;2023-12-04T11:59:07;99886.22;;;0.54;89.61
55070;BME280;40967;52.070;8.596;2023-12-04T12:01:40;99881.91;;;0.53;89.36
55070;BME280;40967;52.070;8.596;2023-12-04T12:04:34;99941.75;;;0.88;89.57
55070;BME280;40967;52.070;8.596;2023-12-04T12:07:22;99924.63;;;0.71;90.20
55070;BME280;40967;52.070;8.596;2023-12-04T12:09:55;99887.47;;;0.52;89.53
55070;BME280;40967;52.070;8.596;2023-12-04T12:12:42;99919.69;;;0.75;90.39
55070;BME280;40967;52.070;8.596;2023-12-04T12:15:10;99898.63;;;0.67;89.66
55070;BME280;40967;52.070;8.596;2023-12-04T12:17:41;99883.66;;;0.66;90.36
55070;BME280;40967;52.070;8.596;2023-12-04T12:20:14;99873.72;;;0.73;90.60
55070;BME280;40967;52.070;8.596;2023-12-04T12:22:55;99905.16;;;0.89;90.17
55070;BME280;40967;52.070;8.596;2023-12-04T12:25:46;99903.31;;;0.89;90.85
55070;BME280;40967;52.070;8.596;2023-12-04T12:28:19;99856.13;;;0.65;90.76
55070;BME280;40967;52.070;8.596;2023-12-04T12:30:46;99889.88;;;0.96;91.15
55070;BME280;40967;52.070;8.596;2023-12-04T12:33:16;99872.59;;;0.80;91.38
55070;BME280;40967;52.070;8.596;2023-12-04T12:35:43;99863.78;;;0.80;91.47
55070;BME280;40967;52.070;8.596;2023-12-04T12:38:15;99885.38;;;0.96;90.97
55070;BME280;40967;52.070;8.596;2023-12-04T12:40:54;99848.19;;;0.77;90.55
55070;BME280;40967;52.070;8.596;2023-12-04T12:43:32;99855.47;;;0.88;89.81
55070;BME280;40967;52.070;8.596;2023-12-04T12:46:07;99844.78;;;0.88;89.49
55070;BME280;40967;52.070;8.596;2023-12-04T12:48:47;99846.84;;;0.86;89.26
55070;BME280;40967;52.070;8.596;2023-12-04T12:51:46;99826.78;;;0.83;88.58
55070;BME280;40967;52.070;8.596;2023-12-04T12:54:32;99795.94;;;0.69;88.50
55070;BME280;40967;52.070;8.596;2023-12-04T12:57:09;99827.72;;;0.89;88.94
55070;BME280;40967;52.070;8.596;2023-12-04T12:59:53;99842.63;;;0.96;88.46
55070;BME280;40967;52.070;8.596;2023-12-04T13:02:20;99858.13;;;1.06;88.16
55070;BME280;40967;52.070;8.596;2023-12-04T13:04:54;99853.44;;;1.01;87.40
55070;BME280;40967;52.070;8.596;2023-12-04T13:07:42;99856.72;;;1.03;88.04
55070;BME280;40967;52.070;8.596;2023-12-04T13:10:19;99818.41;;;0.80;87.62
55070;BME280;40967;52.070;8.596;2023-12-04T13:13:15;99849.31;;;1.05;86.82
55070;BME280;40967;52.070;8.596;2023-12-04T13:15:49;99822.31;;;0.95;87.82
55070;BME280;40967;52.070;8.596;2023-12-04T13:18:38;99820.53;;;0.89;87.23
55070;BME280;40967;52.070;8.596;2023-12-04T13:21:19;99779.69;;;0.71;86.88
55070;BME280;40967;52.070;8.596;2023-12-04T13:23:46;99821.03;;;0.98;87.23
55070;BME280;40967;52.070;8.596;2023-12-04T13:26:19;99830.16;;;1.08;87.78
55070;BME280;40967;52.070;8.596;2023-12-04T13:28:58;99829.09;;;1.09;88.47
55070;BME280;40967;52.070;8.596;2023-12-04T13:31:36;99795.38;;;0.97;87.89
55070;BME280;40967;52.070;8.596;2023-12-04T13:34:04;99820.06;;;1.10;87.89
55070;BME280;40967;52.070;8.596;2023-12-04T13:36:39;99792.56;;;0.92;88.81
55070;BME280;40967;52.070;8.596;2023-12-04T13:39:09;99751.47;;;0.75;89.74
55070;BME280;40967;52.070;8.596;2023-12-04T13:41:45;99763.94;;;0.81;89.83
55070;BME280;40967;52.070;8.596;2023-12-04T13:44:45;99809.97;;;1.12;90.06
55070;BME280;40967;52.070;8.596;2023-12-04T13:47:35;99765.03;;;0.91;90.79
55070;BME280;40967;52.070;8.596;2023-12-04T13:50:08;99773.91;;;1.03;91.41
55070;BME280;40967;52.070;8.596;2023-12-04T13:52:38;99768.66;;;0.97;91.08
55070;BME280;40967;52.070;8.596;2023-12-04T13:55:23;99795.91;;;1.17;91.35
55070;BME280;40967;52.070;8.596;2023-12-04T13:58:11;99738.28;;;0.80;90.19
55070;BME280;40967;52.070;8.596;2023-12-04T14:01:25;99772.88;;;1.04;89.93
55070;BME280;40967;52.070;8.596;2023-12-04T14:04:12;99788.50;;;1.19;90.04
55070;BME280;40967;52.070;8.596;2023-12-04T14:06:53;99774.91;;;1.21;90.03
55070;BME280;40967;52.070;8.596;2023-12-04T14:09:30;99748.03;;;1.04;90.08
55070;BME280;40967;52.070;8.596;2023-12-04T14:12:13;99761.97;;;1.06;89.96
55070;BME280;40967;52.070;8.596;2023-12-04T14:14:53;99748.03;;;1.04;89.83
55070;BME280;40967;52.070;8.596;2023-12-04T14:17:34;99760.16;;;1.18;90.10
55070;BME280;40967;52.070;8.596;2023-12-04T14:20:08;99760.16;;;1.18;89.35
55070;BME280;40967;52.070;8.596;2023-12-04T14:22:54;99758.50;;;1.17;89.74
55070;BME280;40967;52.070;8.596;2023-12-04T14:25:30;99740.38;;;1.07;90.36
55070;BME280;40967;52.070;8.596;2023-12-04T14:28:14;99764.69;;;1.17;90.56
55070;BME280;40967;52.070;8.596;2023-12-04T14:30:44;99723.63;;;1.00;90.52
55070;BME280;40967;52.070;8.596;2023-12-04T14:33:19;99719.53;;;0.98;91.41
55070;BME280;40967;52.070;8.596;2023-12-04T14:35:53;99729.09;;;1.05;91.97
55070;BME280;40967;52.070;8.596;2023-12-04T14:38:20;99709.41;;;0.88;91.72